Time;durP1;ratioP1;P1;durP2;ratioP2;P2;SDS_P1;SDS_P2;PMS_P1;PMS_P2;Temp;Humidity;BMP_temperature;BMP_pressure;BME280_temperature;BME280_humidity;BME280_pressure;Samples;Min_cycle;Max_cycle;Signal;HPM_P1;HPM_P2
2022/06/07 00:01:10;;;;;;;8.23;4.75;;;11.90;99.90;;;;;;5075422;28;20060;-76
2022/06/07 00:03:36;;;;;;;10.90;4.85;;;11.90;99.90;;;;;;5075383;28;20497;-72
2022/06/07 00:06:02;;;;;;;9.60;4.63;;;11.90;99.90;;;;;;5075200;28;20446;-71
2022/06/07 00:08:30;;;;;;;8.65;4.80;;;11.90;99.90;;;;;;5074935;28;20386;-71
2022/06/07 00:10:55;;;;;;;8.60;4.55;;;11.90;99.90;;;;;;5075344;28;20057;-71
2022/06/07 00:13:21;;;;;;;11.73;5.07;;;11.90;99.90;;;;;;5075270;28;20053;-72
2022/06/07 00:15:47;;;;;;;9.75;4.35;;;11.90;99.90;;;;;;5075308;28;20075;-71
2022/06/07 00:18:13;;;;;;;8.43;4.55;;;11.90;99.90;;;;;;5074045;28;20088;-72
2022/06/07 00:20:40;;;;;;;12.90;5.63;;;11.90;99.90;;;;;;5075029;28;20435;-71
2022/06/07 00:23:11;;;;;;;10.65;5.90;;;11.90;99.90;;;;;;5073791;28;20056;-72
2022/06/07 00:25:37;;;;;;;8.88;5.20;;;12.50;99.90;;;;;;5074550;28;20091;-72
2022/06/07 00:28:04;;;;;;;9.63;5.53;;;11.90;99.90;;;;;;5074029;28;20056;-76
2022/06/07 00:30:31;;;;;;;10.18;5.38;;;12.00;99.90;;;;;;5074915;28;20374;-75
2022/06/07 00:32:57;;;;;;;7.45;4.75;;;12.00;99.90;;;;;;5074756;28;20056;-72
2022/06/07 00:35:23;;;;;;;9.65;5.95;;;12.00;99.90;;;;;;5073748;28;20097;-74
2022/06/07 00:37:49;;;;;;;11.55;6.93;;;12.60;99.90;;;;;;5073331;28;20131;-71
2022/06/07 00:40:15;;;;;;;9.98;5.75;;;12.00;99.90;;;;;;5074737;28;20052;-72
2022/06/07 00:42:41;;;;;;;10.82;5.82;;;12.00;99.90;;;;;;5074797;28;20420;-71
2022/06/07 00:45:12;;;;;;;11.43;7.15;;;12.00;99.90;;;;;;5074648;28;20424;-72
2022/06/07 00:47:38;;;;;;;12.23;7.13;;;12.90;99.90;;;;;;5073242;28;20059;-71
2022/06/07 00:50:22;;;;;;;11.52;5.95;;;12.00;99.90;;;;;;5074428;28;20052;-71
2022/06/07 00:52:48;;;;;;;15.18;7.30;;;12.00;99.90;;;;;;5073396;28;20059;-72
2022/06/07 00:55:14;;;;;;;12.65;7.28;;;12.00;99.90;;;;;;5074434;28;20053;-72
2022/06/07 00:57:40;;;;;;;13.75;7.85;;;12.00;99.90;;;;;;5074392;28;20044;-71
2022/06/07 01:00:09;;;;;;;10.60;6.95;;;12.10;99.90;;;;;;5073085;28;20493;-71
2022/06/07 01:02:35;;;;;;;12.68;7.70;;;12.00;99.90;;;;;;5074093;28;20451;-72
2022/06/07 01:05:01;;;;;;;15.07;7.90;;;12.00;99.90;;;;;;5074028;28;20044;-72
2022/06/07 01:12:56;;;;;;;12.73;8.13;;;12.00;99.90;;;;;;5073910;28;20051;-72
2022/06/07 01:15:21;;;;;;;13.85;7.50;;;12.20;99.90;;;;;;5073869;28;20137;-71
2022/06/07 01:17:47;;;;;;;18.15;8.48;;;12.00;99.90;;;;;;5072867;28;20143;-72
2022/06/07 01:20:13;;;;;;;11.68;7.68;;;12.00;99.90;;;;;;5072965;28;20056;-72
2022/06/07 01:22:39;;;;;;;16.23;9.73;;;12.00;99.90;;;;;;5072556;28;20408;-76
2022/06/07 01:25:06;;;;;;;19.27;10.70;;;12.00;99.90;;;;;;5073595;28;20147;-71
2022/06/07 01:27:32;;;;;;;20.60;9.63;;;12.00;99.90;;;;;;5073673;28;20049;-71
2022/06/07 01:29:57;;;;;;;17.52;11.63;;;12.20;99.90;;;;;;5073625;28;20465;-72
2022/06/07 01:32:24;;;;;;;18.67;10.25;;;12.00;99.90;;;;;;5073596;28;20048;-72
2022/06/07 01:34:49;;;;;;;;;;;12.10;99.90;;;;;;5074027;28;20143;-74
2022/06/07 01:37:18;;;;;;;14.93;9.30;;;12.10;99.90;;;;;;5073028;28;19967;-71
2022/06/07 01:42:28;;;;;;;14.80;9.18;;;12.10;99.90;;;;;;5072481;28;20562;-71
2022/06/07 01:44:53;;;;;;;17.38;9.75;;;12.40;99.90;;;;;;5073368;28;20044;-71
2022/06/07 01:47:26;;;;;;;17.52;9.20;;;12.10;99.90;;;;;;5073543;28;20413;-75
2022/06/07 01:49:52;;;;;;;15.57;9.50;;;12.10;99.90;;;;;;5073538;28;20106;-71
2022/06/07 01:52:21;;;;;;;15.70;8.68;;;12.10;99.90;;;;;;5073423;28;20051;-72
2022/06/07 01:54:47;;;;;;;15.68;9.82;;;12.20;99.90;;;;;;5071996;28;20416;-72
2022/06/07 01:57:12;;;;;;;19.17;9.20;;;12.10;99.90;;;;;;5073216;28;20040;-71
2022/06/07 01:59:39;;;;;;;16.20;7.95;;;12.20;99.90;;;;;;5072977;28;20059;-75
2022/06/07 02:02:05;;;;;;;;;;;12.10;99.90;;;;;;5073831;28;20059;-75
2022/06/07 02:04:32;;;;;;;16.43;9.73;;;12.30;99.90;;;;;;5072413;28;19983;-71
2022/06/07 02:06:57;;;;;;;17.80;8.90;;;12.20;99.90;;;;;;5073212;28;20502;-72
2022/06/07 02:09:23;;;;;;;13.45;8.20;;;12.20;99.90;;;;;;5073140;28;20088;-73
2022/06/07 02:11:49;;;;;;;13.23;8.55;;;12.30;99.90;;;;;;5071869;28;20447;-76
2022/06/07 02:14:15;;;;;;;12.10;8.70;;;12.20;99.90;;;;;;5071890;28;20060;-72
2022/06/07 02:16:41;;;;;;;13.65;8.60;;;12.20;99.90;;;;;;5073324;28;20049;-75
2022/06/07 02:19:07;;;;;;;14.57;8.60;;;12.20;99.90;;;;;;5073199;28;20060;-71
2022/06/07 02:21:33;;;;;;;14.50;9.05;;;12.20;99.90;;;;;;5073116;28;20049;-72
2022/06/07 02:23:59;;;;;;;15.95;9.68;;;12.20;99.90;;;;;;5064809;28;20059;-71
2022/06/07 02:26:28;;;;;;;17.58;9.98;;;12.30;99.90;;;;;;5071806;28;20054;-71
2022/06/07 02:29:01;;;;;;;15.65;9.35;;;12.80;99.90;;;;;;5072884;28;20143;-74
2022/06/07 02:31:29;;;;;;;14.38;9.50;;;12.20;99.90;;;;;;5073104;28;20131;-71
2022/06/07 02:33:56;;;;;;;12.63;9.35;;;12.30;99.90;;;;;;5072170;28;20056;-72
2022/06/07 02:36:21;;;;;;;21.45;11.05;;;12.30;99.90;;;;;;5073002;28;20040;-72
2022/06/07 02:38:47;;;;;;;15.25;9.52;;;12.30;99.90;;;;;;5072987;28;20053;-71
2022/06/07 02:41:18;;;;;;;13.35;9.75;;;12.30;99.90;;;;;;5072918;28;20048;-75
2022/06/07 02:43:45;;;;;;;12.63;7.88;;;12.30;99.90;;;;;;5072679;28;20049;-71
2022/06/07 02:46:11;;;;;;;15.60;8.60;;;12.30;99.90;;;;;;5055219;28;20048;-73
2022/06/07 02:48:37;;;;;;;12.90;7.03;;;12.30;99.90;;;;;;5076356;28;20145;-74
2022/06/07 02:51:03;;;;;;;13.80;8.45;;;12.30;99.90;;;;;;5076781;28;20110;-74
2022/06/07 02:53:29;;;;;;;13.00;8.65;;;12.30;99.90;;;;;;5076592;28;20053;-75
2022/06/07 02:55:56;;;;;;;14.00;7.82;;;12.30;99.90;;;;;;5076555;28;20049;-71
2022/06/07 02:58:22;;;;;;;14.48;9.05;;;12.30;99.90;;;;;;5076536;28;20060;-71
2022/06/07 03:00:48;;;;;;;14.63;8.77;;;12.30;99.90;;;;;;5076713;28;20509;-71
2022/06/07 03:03:14;;;;;;;15.30;8.60;;;12.30;99.90;;;;;;5075700;28;20074;-72
2022/06/07 03:05:39;;;;;;;14.43;8.68;;;12.40;99.90;;;;;;5076450;28;20061;-71
2022/06/07 03:08:05;;;;;;;16.90;9.02;;;12.40;99.90;;;;;;5076282;28;20481;-71
2022/06/07 03:10:31;;;;;;;16.55;9.13;;;12.30;99.90;;;;;;5076450;28;20504;-71
2022/06/07 03:12:56;;;;;;;15.40;9.48;;;12.40;99.90;;;;;;5075338;28;20452;-72
2022/06/07 03:15:22;;;;;;;15.25;8.98;;;12.30;99.90;;;;;;5076175;28;20497;-74
2022/06/07 03:17:48;;;;;;;13.05;8.68;;;12.40;99.90;;;;;;5076380;28;20045;-71
2022/06/07 03:20:14;;;;;;;18.38;9.52;;;12.30;99.90;;;;;;5076446;28;20048;-71
2022/06/07 03:22:40;;;;;;;14.98;8.65;;;12.30;99.90;;;;;;5075149;28;20414;-74
2022/06/07 03:25:07;;;;;;;14.25;9.02;;;12.30;99.90;;;;;;5057987;28;20389;-75
2022/06/07 03:27:35;;;;;;;15.85;9.27;;;12.40;99.90;;;;;;5075965;28;20044;-72
2022/06/07 03:30:06;;;;;;;14.85;9.02;;;12.40;99.90;;;;;;5074740;28;20052;-72
2022/06/07 03:32:33;;;;;;;15.30;8.85;;;12.40;99.90;;;;;;5075999;28;20493;-73
2022/06/07 03:34:59;;;;;;;13.25;8.90;;;12.30;99.90;;;;;;5075920;28;20056;-72
2022/06/07 03:37:25;;;;;;;15.52;8.02;;;12.50;99.90;;;;;;5075877;28;20056;-76
2022/06/07 03:39:51;;;;;;;13.48;7.95;;;12.30;99.90;;;;;;5075793;28;20131;-73
2022/06/07 03:42:17;;;;;;;;;;;12.30;99.90;;;;;;5075274;28;20064;-73
2022/06/07 03:44:48;;;;;;;14.95;8.70;;;12.30;99.90;;;;;;5075557;28;20403;-73
2022/06/07 03:47:18;;;;;;;12.38;7.93;;;12.40;99.90;;;;;;5074653;28;20472;-71
2022/06/07 03:49:46;;;;;;;12.85;7.95;;;12.40;99.90;;;;;;5075535;28;20520;-74
2022/06/07 03:52:12;;;;;;;13.48;7.88;;;12.40;99.90;;;;;;5075744;28;20056;-73
2022/06/07 03:54:38;;;;;;;14.10;8.57;;;12.30;99.90;;;;;;5075513;28;20053;-76
2022/06/07 03:57:06;;;;;;;14.90;7.97;;;12.40;99.90;;;;;;5075460;28;20432;-71
2022/06/07 03:59:31;;;;;;;14.02;9.13;;;12.40;99.90;;;;;;5074657;28;20075;-72
2022/06/07 04:01:58;;;;;;;14.85;9.02;;;12.40;99.90;;;;;;5075530;28;20385;-71
2022/06/07 04:04:24;;;;;;;16.30;8.90;;;12.40;99.90;;;;;;5074476;28;20060;-73
2022/06/07 04:09:42;;;;;;;12.95;8.48;;;12.40;99.90;;;;;;5075095;28;20059;-71
2022/06/07 04:12:14;;;;;;;19.15;10.48;;;12.40;99.90;;;;;;5075453;28;20067;-72
2022/06/07 04:14:43;;;;;;;16.48;8.35;;;12.40;99.90;;;;;;5075363;28;20068;-73
2022/06/07 04:17:10;;;;;;;17.85;8.52;;;12.50;99.90;;;;;;5075109;28;20497;-71
2022/06/07 04:19:38;;;;;;;12.27;7.45;;;12.40;99.90;;;;;;5074995;28;20546;-71
2022/06/07 04:22:04;;;;;;;15.38;8.48;;;12.40;99.90;;;;;;5075051;28;20052;-72
2022/06/07 04:24:30;;;;;;;15.93;8.73;;;12.40;99.90;;;;;;5074848;28;20057;-72
2022/06/07 04:26:56;;;;;;;14.82;9.27;;;12.40;99.90;;;;;;5073549;28;20057;-71
2022/06/07 04:29:23;;;;;;;14.15;9.02;;;12.40;99.90;;;;;;5074979;28;20080;-71
2022/06/07 04:31:49;;;;;;;13.57;8.30;;;12.60;99.90;;;;;;5074943;28;20409;-75
2022/06/07 04:34:16;;;;;;;14.32;8.52;;;12.50;99.90;;;;;;5074873;28;20060;-71
2022/06/07 04:36:42;;;;;;;14.10;8.00;;;12.40;99.90;;;;;;5074764;28;20386;-71
2022/06/07 04:39:08;;;;;;;16.23;9.70;;;12.90;99.90;;;;;;5074580;28;20158;-71
2022/06/07 04:41:34;;;;;;;15.40;8.93;;;12.50;99.90;;;;;;5073334;28;20055;-72
2022/06/07 04:44:00;;;;;;;14.73;8.52;;;12.50;99.90;;;;;;5074681;28;20058;-73
2022/06/07 04:46:27;;;;;;;14.80;8.90;;;12.50;99.90;;;;;;5074339;28;20485;-71
2022/06/07 04:48:54;;;;;;;14.43;8.43;;;12.60;99.90;;;;;;5074541;28;20056;-71
2022/06/07 04:51:24;;;;;;;14.38;9.15;;;12.50;99.90;;;;;;5074483;28;20481;-74
2022/06/07 04:53:51;;;;;;;14.98;8.75;;;12.50;99.90;;;;;;5074195;28;20091;-71
2022/06/07 04:56:28;;;;;;;14.95;8.90;;;12.50;99.90;;;;;;5073426;28;20056;-72
2022/06/07 04:58:55;;;;;;;16.20;8.80;;;12.50;99.90;;;;;;5074357;28;20088;-72
2022/06/07 05:01:24;;;;;;;17.58;9.55;;;12.50;99.90;;;;;;5074220;28;20055;-72
2022/06/07 05:03:50;;;;;;;12.45;7.78;;;12.60;99.90;;;;;;5074182;28;20056;-71
2022/06/07 05:06:20;;;;;;;14.55;8.10;;;12.60;99.90;;;;;;5072834;28;20060;-71
2022/06/07 05:08:47;;;;;;;12.70;8.05;;;12.60;99.90;;;;;;5072707;28;20087;-72
2022/06/07 05:11:12;;;;;;;;;;;12.50;99.90;;;;;;5074512;28;20224;-73
2022/06/07 05:13:38;;;;;;;13.55;8.60;;;12.50;99.90;;;;;;5074133;28;19927;-71
2022/06/07 05:16:05;;;;;;;13.13;7.72;;;12.50;99.90;;;;;;5074032;28;20048;-71
2022/06/07 05:18:30;;;;;;;;;;;12.60;99.90;;;;;;5073496;28;20072;-73
2022/06/07 05:20:56;;;;;;;14.90;7.68;;;12.50;99.90;;;;;;5073817;28;19924;-71
2022/06/07 05:23:21;;;;;;;14.60;7.28;;;12.50;99.90;;;;;;5073691;28;20052;-73
2022/06/07 05:25:59;;;;;;;14.95;9.48;;;12.50;99.90;;;;;;5072467;28;20060;-73
2022/06/07 05:28:25;;;;;;;19.10;9.20;;;12.80;99.90;;;;;;5073773;28;20049;-71
2022/06/07 05:30:51;;;;;;;15.23;8.07;;;12.50;99.90;;;;;;5073951;28;20056;-72
2022/06/07 05:33:16;;;;;;;14.13;9.18;;;12.50;99.90;;;;;;5072029;28;20082;-72
2022/06/07 05:35:42;;;;;;;15.82;8.60;;;13.20;99.90;;;;;;5072435;28;20172;-71
2022/06/07 05:38:12;;;;;;;13.63;9.18;;;12.60;99.90;;;;;;5073442;28;20088;-71
2022/06/07 05:40:38;;;;;;;14.30;8.73;;;12.60;99.90;;;;;;5073659;28;20442;-72
2022/06/07 05:43:03;;;;;;;12.27;8.55;;;12.60;99.90;;;;;;5073614;28;20048;-71
2022/06/07 05:45:33;;;;;;;14.98;8.88;;;12.60;99.90;;;;;;5073469;28;20110;-71
2022/06/07 05:47:58;;;;;;;19.95;9.95;;;12.60;99.90;;;;;;5073355;28;20052;-71
2022/06/07 05:50:25;;;;;;;19.23;9.57;;;12.60;99.90;;;;;;5073469;28;20120;-72
2022/06/07 05:52:51;;;;;;;14.90;7.80;;;12.90;99.90;;;;;;5073290;28;20131;-72
2022/06/07 05:55:17;;;;;;;16.63;8.02;;;13.10;99.90;;;;;;5072092;28;20106;-72
2022/06/07 05:57:49;;;;;;;14.27;9.38;;;12.60;99.90;;;;;;5073328;28;20053;-71
2022/06/07 06:00:16;;;;;;;18.75;9.15;;;12.60;99.90;;;;;;5071514;28;20048;-75
2022/06/07 06:02:42;;;;;;;17.70;10.02;;;12.60;99.90;;;;;;5073196;28;20135;-73
2022/06/07 06:05:08;;;;;;;14.02;8.20;;;12.60;99.90;;;;;;5071833;28;20139;-72
2022/06/07 06:07:33;;;;;;;;;;;12.60;99.90;;;;;;5073416;28;20507;-73
2022/06/07 06:12:48;;;;;;;15.65;8.60;;;12.60;99.90;;;;;;5070870;28;20084;-72
2022/06/07 06:15:14;;;;;;;15.07;9.35;;;12.60;99.90;;;;;;5070841;28;20500;-72
2022/06/07 06:17:40;;;;;;;13.68;7.90;;;12.60;99.90;;;;;;5054221;28;20056;-71
2022/06/07 06:20:07;;;;;;;14.10;8.20;;;12.60;99.90;;;;;;5070834;28;20053;-75
2022/06/07 06:22:34;;;;;;;16.02;9.00;;;12.60;99.90;;;;;;5070246;28;20052;-71
2022/06/07 06:25:00;;;;;;;14.23;8.43;;;12.60;99.90;;;;;;5053141;28;20060;-71
2022/06/07 06:27:26;;;;;;;12.82;7.82;;;12.60;99.90;;;;;;5070684;28;20048;-73
2022/06/07 06:29:52;;;;;;;17.20;8.20;;;12.60;99.90;;;;;;5054085;28;20052;-72
2022/06/07 06:32:18;;;;;;;10.93;6.22;;;12.60;99.90;;;;;;5037072;28;20090;-73
2022/06/07 06:34:44;;;;;;;14.45;6.53;;;12.50;99.90;;;;;;5070617;28;20056;-73
2022/06/07 06:37:09;;;;;;;14.85;5.07;;;12.40;99.90;;;;;;5037501;28;20117;-75
2022/06/07 06:39:35;;;;;;;8.38;4.45;;;12.40;99.90;;;;;;5070560;28;20064;-71
2022/06/07 06:42:01;;;;;;;8.00;4.88;;;12.30;99.90;;;;;;5051377;28;20068;-71
2022/06/07 06:44:26;;;;;;;8.23;4.57;;;12.20;99.90;;;;;;5050609;28;20061;-71
2022/06/07 06:46:53;;;;;;;6.72;3.72;;;12.10;99.90;;;;;;5050596;28;20119;-71
2022/06/07 06:49:18;;;;;;;6.18;3.08;;;11.90;99.90;;;;;;5056833;28;20505;-71
2022/06/07 06:51:45;;;;;;;5.70;3.55;;;11.80;99.90;;;;;;5091010;28;20055;-72
2022/06/07 06:54:13;;;;;;;4.40;3.05;;;11.70;99.90;;;;;;5092874;28;20063;-70
2022/06/07 06:56:39;;;;;;;7.85;3.28;;;11.70;99.90;;;;;;5087228;28;20491;-72
2022/06/07 06:59:05;;;;;;;8.82;3.88;;;11.60;99.90;;;;;;5093012;28;20545;-71
2022/06/07 07:01:34;;;;;;;7.35;3.35;;;11.80;99.90;;;;;;5092631;28;20059;-73
2022/06/07 07:04:03;;;;;;;5.45;2.90;;;11.70;99.90;;;;;;5092826;28;20493;-71
2022/06/07 07:06:29;;;;;;;7.78;3.38;;;11.50;99.90;;;;;;5091630;28;20048;-71
2022/06/07 07:08:56;;;;;;;7.50;3.70;;;11.80;99.90;;;;;;5092772;28;20513;-70
2022/06/07 07:11:57;;;;;;;6.18;3.42;;;11.50;99.90;;;;;;5092825;28;20056;-69
2022/06/07 07:14:23;;;;;;;7.65;4.13;;;11.50;99.90;;;;;;5030414;28;20592;-71
2022/06/07 07:16:52;;;;;;;7.90;4.30;;;11.50;99.90;;;;;;5030346;28;20045;-71
2022/06/07 07:19:19;;;;;;;7.60;5.35;;;11.50;99.90;;;;;;5030379;28;20057;-73
2022/06/07 07:21:47;;;;;;;12.27;5.15;;;11.60;99.90;;;;;;5014035;28;20093;-71
2022/06/07 07:24:19;;;;;;;8.90;3.85;;;11.60;99.90;;;;;;5030054;28;20596;-73
2022/06/07 07:26:46;;;;;;;11.40;5.55;;;11.50;99.90;;;;;;5030095;28;20122;-71
2022/06/07 07:29:13;;;;;;;12.15;4.05;;;11.60;99.90;;;;;;5013609;28;20068;-75
2022/06/07 07:31:40;;;;;;;9.88;4.40;;;11.60;99.90;;;;;;5030115;28;20061;-73
2022/06/07 07:34:10;;;;;;;8.60;4.88;;;11.60;99.90;;;;;;5031113;28;20065;-74
2022/06/07 07:36:41;;;;;;;7.65;4.05;;;11.70;99.90;;;;;;5033739;28;20096;-70
2022/06/07 07:39:07;;;;;;;10.18;4.95;;;12.40;99.90;;;;;;5017350;28;20119;-72
2022/06/07 07:41:35;;;;;;;12.95;4.75;;;11.80;99.90;;;;;;5017364;28;20053;-70
2022/06/07 07:44:05;;;;;;;10.25;4.88;;;11.80;99.90;;;;;;5033625;28;20128;-72
2022/06/07 07:46:34;;;;;;;9.23;4.72;;;11.70;99.90;;;;;;5017165;28;20053;-70
2022/06/07 07:49:00;;;;;;;7.85;5.30;;;11.80;99.90;;;;;;5081531;28;20389;-74
2022/06/07 07:51:30;;;;;;;;;;;11.80;99.90;;;;;;5096488;28;20113;-70
2022/06/07 07:53:58;;;;;;;11.07;5.57;;;11.80;99.90;;;;;;5095650;28;19920;-71
2022/06/07 07:56:25;;;;;;;10.75;5.53;;;11.90;99.90;;;;;;5095806;28;20102;-71
2022/06/07 07:58:52;;;;;;;8.57;5.72;;;11.80;99.90;;;;;;5094607;28;20127;-73
2022/06/07 08:01:24;;;;;;;7.60;4.50;;;11.90;99.90;;;;;;5094638;28;20421;-70
2022/06/07 08:03:50;;;;;;;11.95;5.55;;;11.90;99.90;;;;;;5095709;28;20413;-71
2022/06/07 08:06:18;;;;;;;12.25;5.18;;;11.80;99.90;;;;;;5094097;28;20052;-70
2022/06/07 08:08:45;;;;;;;11.93;5.32;;;11.80;99.90;;;;;;5095530;28;20091;-74
2022/06/07 08:11:12;;;;;;;6.50;4.13;;;11.70;99.90;;;;;;5095369;28;20047;-71
2022/06/07 08:13:38;;;;;;;9.05;4.03;;;11.80;99.90;;;;;;5095606;28;20051;-70
2022/06/07 08:16:06;;;;;;;9.98;4.38;;;11.70;99.90;;;;;;5095543;28;20048;-71
2022/06/07 08:18:33;;;;;;;8.70;4.80;;;11.70;99.90;;;;;;5095445;28;20493;-71
2022/06/07 08:21:03;;;;;;;10.38;4.72;;;11.60;99.90;;;;;;5095297;28;20048;-71
2022/06/07 08:23:30;;;;;;;8.90;3.75;;;11.80;99.90;;;;;;5095118;28;20130;-71
2022/06/07 08:25:56;;;;;;;7.10;4.43;;;11.60;99.90;;;;;;5103891;28;20074;-71
2022/06/07 08:28:22;;;;;;;7.43;3.70;;;11.90;99.90;;;;;;5096975;28;20051;-73
2022/06/07 08:30:48;;;;;;;;;;;12.60;99.90;;;;;;5114791;28;20128;-72
2022/06/07 08:38:44;;;;;;;10.32;4.80;;;11.50;99.90;;;;;;5113707;28;20055;-71
2022/06/07 08:41:27;;;;;;;9.15;5.00;;;11.60;99.90;;;;;;5115173;28;20503;-71
2022/06/07 08:44:04;;;;;;;9.07;5.13;;;11.60;99.90;;;;;;5115256;28;20055;-71
2022/06/07 08:46:34;;;;;;;11.95;5.72;;;11.60;99.90;;;;;;5113180;28;20052;-71
2022/06/07 08:49:00;;;;;;;13.15;5.97;;;11.60;99.90;;;;;;5115011;28;20047;-71
2022/06/07 08:51:38;;;;;;;12.48;6.60;;;11.60;99.90;;;;;;5096546;28;20060;-71
2022/06/07 08:54:18;;;;;;;8.90;5.22;;;11.70;99.90;;;;;;5114980;28;20547;-73
2022/06/07 08:56:44;;;;;;;10.07;3.65;;;11.70;99.90;;;;;;5115047;28;20087;-72
2022/06/07 08:59:15;;;;;;;8.18;3.58;;;11.70;99.90;;;;;;5113447;28;20504;-72
2022/06/07 09:01:47;;;;;;;8.98;4.45;;;12.00;99.90;;;;;;5079959;28;20060;-71
2022/06/07 09:04:17;;;;;;;12.45;3.80;;;11.70;99.90;;;;;;5115054;28;20056;-71
2022/06/07 09:06:46;;;;;;;9.80;4.28;;;11.70;99.90;;;;;;5114835;28;20047;-72
2022/06/07 09:09:15;;;;;;;7.03;3.40;;;11.70;99.90;;;;;;5096499;28;20047;-71
2022/06/07 09:12:10;;;;;;;6.28;3.08;;;11.70;99.90;;;;;;5096544;28;20113;-71
2022/06/07 09:14:53;;;;;;;8.07;3.50;;;11.70;99.90;;;;;;5114881;28;20051;-70
2022/06/07 09:17:29;;;;;;;5.82;3.63;;;11.80;99.90;;;;;;5096624;28;20048;-73
2022/06/07 09:19:55;;;;;;;12.75;5.07;;;11.80;99.90;;;;;;5114572;28;20130;-73
2022/06/07 09:22:25;;;;;;;7.63;3.70;;;11.70;99.90;;;;;;5114432;28;20515;-71
2022/06/07 09:24:57;;;;;;;10.43;3.53;;;11.80;99.90;;;;;;5114120;28;20139;-71
2022/06/07 09:27:26;;;;;;;8.68;4.18;;;11.80;99.90;;;;;;5114012;28;20384;-74
2022/06/07 09:29:56;;;;;;;10.88;4.30;;;11.80;99.90;;;;;;5096124;28;20054;-71
2022/06/07 09:32:25;;;;;;;8.70;4.22;;;11.80;99.90;;;;;;5096187;28;20060;-71
2022/06/07 09:35:00;;;;;;;11.07;4.57;;;12.60;99.90;;;;;;5114198;28;20522;-74
2022/06/07 09:37:48;;;;;;;11.82;5.30;;;11.90;99.90;;;;;;5114076;28;20132;-72
2022/06/07 09:40:23;;;;;;;9.63;4.57;;;11.90;99.90;;;;;;5086658;28;20055;-71
2022/06/07 09:43:37;;;;;;;8.60;4.25;;;11.90;99.90;;;;;;5114187;28;20051;-71
2022/06/07 09:46:08;;;;;;;11.32;4.30;;;12.00;99.90;;;;;;5031303;28;20136;-73
2022/06/07 09:48:37;;;;;;;9.05;4.10;;;12.00;99.90;;;;;;5031345;28;20092;-75
2022/06/07 09:51:14;;;;;;;11.15;3.78;;;12.30;99.90;;;;;;5031287;28;20057;-72
2022/06/07 09:53:43;;;;;;;10.30;4.47;;;12.00;99.90;;;;;;5031212;28;20049;-72
2022/06/07 09:56:24;;;;;;;10.15;3.90;;;12.10;99.90;;;;;;5030714;28;20053;-71
2022/06/07 09:59:07;;;;;;;7.32;4.15;;;12.10;99.90;;;;;;5031053;28;20057;-72
2022/06/07 10:01:42;;;;;;;9.50;4.22;;;12.10;99.90;;;;;;5030918;28;20140;-73
2022/06/07 10:04:16;;;;;;;5.60;3.97;;;12.10;99.90;;;;;;5014835;28;20532;-74
2022/06/07 10:06:50;;;;;;;8.35;4.10;;;12.10;99.90;;;;;;5030987;28;20050;-70
2022/06/07 10:09:50;;;;;;;8.50;4.13;;;12.10;99.90;;;;;;5030950;28;20061;-70
2022/06/07 10:12:34;;;;;;;12.63;4.60;;;12.10;99.90;;;;;;5014348;28;20464;-75
2022/06/07 10:15:18;;;;;;;7.30;4.45;;;12.20;99.90;;;;;;5031004;28;20502;-71
2022/06/07 10:18:03;;;;;;;7.88;4.18;;;12.20;99.90;;;;;;5109547;28;20497;-71
2022/06/07 10:20:37;;;;;;;7.32;3.53;;;12.20;99.90;;;;;;5113642;28;20048;-71
2022/06/07 10:23:25;;;;;;;7.07;3.42;;;12.30;99.90;;;;;;5113400;28;20047;-71
2022/06/07 10:26:15;;;;;;;4.43;1.77;;;12.30;99.90;;;;;;5113008;28;20055;-71
2022/06/07 10:28:59;;;;;;;5.10;1.58;;;12.30;99.90;;;;;;5095478;28;20508;-71
2022/06/07 10:31:27;;;;;;;3.70;1.45;;;12.40;99.90;;;;;;5095354;28;20488;-71
2022/06/07 10:34:00;;;;;;;4.50;1.50;;;12.50;99.90;;;;;;5113394;28;20052;-74
2022/06/07 10:36:44;;;;;;;4.68;1.77;;;12.50;99.90;;;;;;5113675;28;20048;-72
2022/06/07 10:39:28;;;;;;;4.03;1.70;;;12.80;99.90;;;;;;5067070;28;20053;-70
2022/06/07 10:42:11;;;;;;;5.00;1.33;;;12.60;99.90;;;;;;5075353;28;20056;-73
2022/06/07 10:45:02;;;;;;;6.80;3.30;;;12.60;99.90;;;;;;5092898;28;20052;-72
2022/06/07 10:47:36;;;;;;;1.48;0.70;;;12.80;99.90;;;;;;5092996;28;20460;-73
2022/06/07 10:50:06;;;;;;;4.38;1.38;;;12.70;99.90;;;;;;5093790;28;20052;-70
2022/06/07 10:52:45;;;;;;;4.68;1.10;;;12.80;99.90;;;;;;5096113;28;20411;-71
2022/06/07 10:55:35;;;;;;;5.65;1.02;;;12.90;99.90;;;;;;5082551;28;20390;-73
2022/06/07 10:58:00;;;;;;;1.77;0.90;;;12.90;99.90;;;;;;5092510;28;20040;-75
2022/06/07 11:00:33;;;;;;;2.53;1.02;;;12.90;99.90;;;;;;5083091;28;20074;-71
2022/06/07 11:03:33;;;;;;;2.90;1.00;;;13.10;99.90;;;;;;5084922;28;20056;-72
2022/06/07 11:09:20;;;;;;;4.97;1.27;;;12.90;99.90;;;;;;5078179;28;20105;-75
2022/06/07 11:11:54;;;;;;;2.75;1.08;;;13.00;99.90;;;;;;5096494;28;20134;-73
2022/06/07 11:14:45;;;;;;;8.73;1.20;;;13.00;99.90;;;;;;5096764;28;20091;-74
2022/06/07 11:17:41;;;;;;;4.20;1.20;;;13.00;99.90;;;;;;5096593;28;20121;-71
2022/06/07 11:20:28;;;;;;;4.30;1.10;;;13.10;99.90;;;;;;5096398;28;20048;-74
2022/06/07 11:23:19;;;;;;;2.38;0.90;;;13.10;99.90;;;;;;5078657;28;20056;-71
2022/06/07 11:26:00;;;;;;;6.93;1.30;;;13.10;99.90;;;;;;5073001;28;20098;-73
2022/06/07 11:28:30;;;;;;;6.57;1.33;;;13.20;99.90;;;;;;5076070;28;20056;-71
2022/06/07 11:31:02;;;;;;;2.78;1.25;;;13.30;99.90;;;;;;5076014;28;20075;-72
2022/06/07 11:33:42;;;;;;;9.82;2.15;;;13.30;99.90;;;;;;5058104;28;20052;-71
2022/06/07 11:36:20;;;;;;;2.60;1.20;;;13.30;99.90;;;;;;5058292;28;20061;-70
2022/06/07 11:38:57;;;;;;;1.77;0.98;;;13.30;99.90;;;;;;5075799;28;20052;-73
2022/06/07 11:41:37;;;;;;;2.45;1.00;;;13.80;99.90;;;;;;5075661;28;20052;-71
2022/06/07 11:44:11;;;;;;;2.10;0.98;;;13.60;99.90;;;;;;5075913;28;20059;-70
2022/06/07 11:46:50;;;;;;;5.22;1.42;;;13.40;99.90;;;;;;5075404;28;20049;-71
2022/06/07 11:49:19;;;;;;;2.85;0.70;;;13.50;99.90;;;;;;5075599;28;20068;-71
2022/06/07 11:52:05;;;;;;;4.68;1.10;;;13.40;99.90;;;;;;5075354;28;20055;-71
2022/06/07 11:54:36;;;;;;;1.83;0.80;;;13.40;99.90;;;;;;5075451;28;20048;-71
2022/06/07 11:57:30;;;;;;;3.58;1.00;;;13.50;99.90;;;;;;5075520;28;20489;-70
2022/06/07 11:59:59;;;;;;;2.40;0.93;;;13.50;99.90;;;;;;5072176;28;20065;-72
2022/06/07 12:02:34;;;;;;;2.38;0.77;;;13.60;99.90;;;;;;5025067;28;20521;-71
2022/06/07 12:05:28;;;;;;;3.80;1.20;;;13.70;99.90;;;;;;5067670;28;20135;-74
2022/06/07 12:07:58;;;;;;;4.38;1.20;;;13.70;99.90;;;;;;5075255;28;20127;-71
2022/06/07 12:10:30;;;;;;;2.45;0.68;;;13.90;99.90;;;;;;5056644;28;20072;-71
2022/06/07 12:13:08;;;;;;;5.57;1.08;;;14.00;99.90;;;;;;5074962;28;20103;-73
2022/06/07 12:15:44;;;;;;;4.63;1.92;;;14.00;99.90;;;;;;5074861;28;20048;-71
2022/06/07 12:18:28;;;;;;;3.70;1.00;;;14.20;99.90;;;;;;5075104;28;20056;-71
2022/06/07 12:20:55;;;;;;;2.72;1.30;;;14.20;99.90;;;;;;5074000;28;20052;-71
2022/06/07 12:23:32;;;;;;;3.15;0.98;;;14.30;99.90;;;;;;5074664;28;20063;-72
2022/06/07 12:25:59;;;;;;;;;;;14.30;99.90;;;;;;5074759;28;20052;-72
2022/06/07 12:28:31;;;;;;;8.13;0.98;;;14.40;99.90;;;;;;5074863;28;19985;-70
2022/06/07 12:30:58;;;;;;;4.47;0.90;;;14.40;99.90;;;;;;5074563;28;20049;-74
2022/06/07 12:33:29;;;;;;;2.58;0.98;;;14.40;99.90;;;;;;5074726;28;20059;-73
2022/06/07 12:36:01;;;;;;;2.70;0.93;;;14.40;99.90;;;;;;5056359;28;20248;-71
2022/06/07 12:38:30;;;;;;;3.65;1.30;;;14.40;99.90;;;;;;5056743;28;20052;-71
2022/06/07 12:41:06;;;;;;;5.57;1.45;;;14.40;99.90;;;;;;5056778;28;20056;-70
2022/06/07 12:43:38;;;;;;;2.25;0.95;;;14.40;99.90;;;;;;5074560;28;20504;-70
2022/06/07 12:46:07;;;;;;;3.85;1.17;;;14.50;99.90;;;;;;5074178;28;20139;-70
2022/06/07 12:48:36;;;;;;;4.72;1.02;;;14.40;99.90;;;;;;5074081;28;20053;-70
2022/06/07 12:51:18;;;;;;;2.03;0.85;;;14.40;99.90;;;;;;5074392;28;20045;-71
2022/06/07 12:53:47;;;;;;;2.45;0.90;;;14.40;99.90;;;;;;5056400;28;20144;-72
2022/06/07 12:56:16;;;;;;;7.20;1.92;;;14.40;99.90;;;;;;5073962;28;20420;-71
2022/06/07 12:58:52;;;;;;;3.20;0.90;;;14.30;99.90;;;;;;5056075;28;20053;-71
2022/06/07 13:01:40;;;;;;;2.20;0.82;;;14.30;99.90;;;;;;5056120;28;20401;-71
2022/06/07 13:04:18;;;;;;;4.15;1.00;;;14.30;99.90;;;;;;5073938;28;20048;-71
2022/06/07 13:07:03;;;;;;;5.40;1.20;;;14.30;99.90;;;;;;5056273;28;20114;-71
2022/06/07 13:09:42;;;;;;;4.45;1.23;;;14.30;99.90;;;;;;5073713;28;20110;-70
2022/06/07 13:12:15;;;;;;;3.22;1.40;;;14.30;99.90;;;;;;5073853;28;20084;-72
2022/06/07 13:14:41;;;;;;;2.33;1.77;;;14.40;99.90;;;;;;5073883;28;20412;-71
2022/06/07 13:17:13;;;;;;;4.80;1.20;;;14.40;99.90;;;;;;5039614;28;20067;-71
2022/06/07 13:19:45;;;;;;;2.67;1.17;;;14.40;99.90;;;;;;5056084;28;20064;-71
2022/06/07 13:22:16;;;;;;;3.78;1.67;;;14.40;99.90;;;;;;5073598;28;20048;-71